Time;durP1;ratioP1;P1;durP2;ratioP2;P2;SDS_P1;SDS_P2;PMS_P1;PMS_P2;Temp;Humidity;BMP_temperature;BMP_pressure;BME280_temperature;BME280_humidity;BME280_pressure;Samples;Min_cycle;Max_cycle;Signal;HPM_P1;HPM_P2
2021/05/06 00:03:57;;;;;;;3.50;1.93;;;;;;;5.11;100.00;100955.93;1809752;79;26767;-73
2021/05/06 00:34:24;;;;;;;3.90;3.43;;;;;;;5.05;100.00;100925.55;1810007;79;26248;-73
2021/05/06 00:36:54;;;;;;;3.80;3.13;;;;;;;4.98;100.00;100921.28;1809885;79;26333;-73
2021/05/06 00:39:25;;;;;;;4.87;3.27;;;;;;;5.10;100.00;100912.95;1809870;79;26325;-73
2021/05/06 00:42:11;;;;;;;4.30;3.60;;;;;;;4.92;100.00;100916.22;1809745;79;26339;-73
2021/05/06 00:56:47;;;;;;;5.80;3.83;;;;;;;4.84;100.00;100899.27;1809946;79;26726;-73
2021/05/06 01:02:27;;;;;;;4.57;4.07;;;;;;;4.75;100.00;100893.32;1795936;79;26244;-73
2021/05/06 01:04:54;;;;;;;4.90;3.50;;;;;;;4.66;100.00;100889.86;1808836;79;26202;-72
2021/05/06 01:07:37;;;;;;;4.37;3.40;;;;;;;4.81;100.00;100891.51;1797244;79;26282;-73
2021/05/06 01:10:17;;;;;;;6.03;3.80;;;;;;;4.77;100.00;100885.67;1809295;79;26202;-72
2021/05/06 01:12:43;;;;;;;4.70;4.20;;;;;;;4.62;100.00;100879.05;1809407;79;26203;-72
2021/05/06 01:15:13;;;;;;;5.17;4.37;;;;;;;4.52;100.00;100883.27;1810114;79;26321;-72
2021/05/06 01:17:43;;;;;;;4.37;3.60;;;;;;;4.82;100.00;100883.02;1809813;79;26208;-72
2021/05/06 01:20:15;;;;;;;6.30;3.87;;;;;;;4.87;100.00;100876.78;1809985;79;26247;-72
2021/05/06 01:22:45;;;;;;;4.67;3.77;;;;;;;4.66;100.00;100864.56;1809855;79;26293;-72
2021/05/06 01:25:16;;;;;;;4.17;3.77;;;;;;;4.66;100.00;100863.19;1810066;79;26216;-72
2021/05/06 01:27:54;;;;;;;4.80;3.73;;;;;;;4.79;100.00;100860.67;1809759;79;26251;-73
2021/05/06 01:30:30;;;;;;;4.20;3.80;;;;;;;4.81;100.00;100855.73;1808967;79;26249;-73
2021/05/06 01:32:58;;;;;;;5.50;3.93;;;;;;;4.80;100.00;100858.19;1808886;79;26264;-73
2021/05/06 01:35:32;;;;;;;5.13;4.17;;;;;;;4.61;100.00;100859.48;1809628;79;26272;-73
2021/05/06 01:38:11;;;;;;;5.30;4.77;;;;;;;4.44;100.00;100849.28;1809188;79;26235;-72
2021/05/06 01:40:52;;;;;;;5.27;4.13;;;;;;;4.65;100.00;100845.00;1808386;79;26195;-72
2021/05/06 01:43:23;;;;;;;4.53;4.00;;;;;;;4.69;100.00;100846.17;1808274;79;26195;-72
2021/05/06 01:46:04;;;;;;;5.53;4.40;;;;;;;4.59;100.00;100837.18;1808403;79;26285;-72
2021/05/06 01:48:46;;;;;;;5.20;4.03;;;;;;;4.38;100.00;100837.03;1808137;79;26207;-72
2021/05/06 01:57:28;;;;;;;4.10;3.67;;;;;;;4.28;100.00;100839.59;1808164;79;26332;-72
2021/05/06 01:59:43;;;;;;;4.90;3.80;;;;;;;4.50;100.00;100825.44;1751364;79;26215;-73
2021/05/06 02:02:11;;;;;;;4.17;3.33;;;;;;;4.47;100.00;100825.94;1809226;79;26272;-73
2021/05/06 02:04:41;;;;;;;4.57;3.27;;;;;;;4.52;100.00;100821.38;1809792;79;26223;-73
2021/05/06 02:07:10;;;;;;;4.13;3.73;;;;;;;4.65;100.00;100823.53;1805647;79;26641;-73
2021/05/06 02:09:40;;;;;;;4.73;3.57;;;;;;;4.59;100.00;100815.71;1802070;79;26289;-73
2021/05/06 02:12:11;;;;;;;5.03;4.07;;;;;;;4.61;100.00;100812.73;1809948;79;26214;-74
2021/05/06 02:14:45;;;;;;;5.07;4.03;;;;;;;4.62;100.00;100813.83;1809669;79;26701;-74
2021/05/06 02:17:13;;;;;;;5.20;4.00;;;;;;;4.44;100.00;100814.90;1809528;79;26298;-74
2021/05/06 02:19:47;;;;;;;4.77;3.70;;;;;;;4.41;100.00;100815.38;1809873;79;26242;-74
2021/05/06 02:22:16;;;;;;;4.20;3.67;;;;;;;4.55;100.00;100807.66;1809484;79;26207;-74
2021/05/06 02:24:46;;;;;;;3.70;3.10;;;;;;;4.71;100.00;100806.84;1809736;79;26218;-74
2021/05/06 02:27:16;;;;;;;4.40;4.00;;;;;;;4.38;100.00;100805.41;1809652;79;26226;-74
2021/05/06 02:29:47;;;;;;;4.37;3.80;;;;;;;4.09;100.00;100808.69;1809640;79;26309;-74
2021/05/06 02:32:16;;;;;;;7.63;4.00;;;;;;;4.07;100.00;100802.05;1809790;79;26211;-74
2021/05/06 02:34:46;;;;;;;4.87;3.87;;;;;;;4.10;100.00;100796.63;1809559;79;26722;-74
2021/05/06 02:37:18;;;;;;;5.70;4.37;;;;;;;4.29;100.00;100793.97;1809625;79;26199;-74
2021/05/06 02:39:48;;;;;;;5.40;4.23;;;;;;;4.15;100.00;100785.70;1809631;79;26253;-75
2021/05/06 02:42:17;;;;;;;5.47;3.93;;;;;;;4.14;100.00;100786.81;1809626;79;26701;-75
2021/05/06 02:44:47;;;;;;;8.03;4.27;;;;;;;4.19;100.00;100778.67;1809632;79;26242;-75
2021/05/06 02:47:17;;;;;;;4.73;4.23;;;;;;;4.32;100.00;100782.47;1809686;79;26250;-74
2021/05/06 02:49:48;;;;;;;5.60;3.73;;;;;;;4.19;100.00;100776.45;1809627;79;26269;-75
2021/05/06 02:52:23;;;;;;;4.77;3.90;;;;;;;4.12;100.00;100766.96;1809719;79;26278;-74
2021/05/06 02:54:56;;;;;;;5.70;4.13;;;;;;;4.12;100.00;100763.67;1809178;79;26301;-74
2021/05/06 02:57:27;;;;;;;5.77;3.70;;;;;;;4.08;100.00;100766.63;1809174;79;26306;-74
2021/05/06 03:02:51;;;;;;;4.77;3.80;;;;;;;4.11;100.00;100761.16;1809648;79;26251;-73
2021/05/06 03:05:25;;;;;;;5.10;4.60;;;;;;;4.12;100.00;100762.84;1809536;79;26194;-75
2021/05/06 03:08:03;;;;;;;4.87;4.03;;;;;;;4.02;100.00;100763.47;1809503;79;26658;-75
2021/05/06 03:10:42;;;;;;;5.03;4.53;;;;;;;4.11;100.00;100762.00;1809385;79;26293;-74
2021/05/06 03:24:50;;;;;;;4.83;3.97;;;;;;;4.02;100.00;100750.30;1729705;82;26292;-73
2021/05/06 03:27:19;;;;;;;5.30;4.30;;;;;;;4.20;100.00;100736.87;1753453;81;26700;-73
2021/05/06 03:29:59;;;;;;;5.40;4.50;;;;;;;4.17;100.00;100740.95;1753628;81;26632;-73
2021/05/06 03:32:29;;;;;;;5.00;4.10;;;;;;;4.08;100.00;100736.39;1752060;82;26241;-73
2021/05/06 03:43:39;;;;;;;6.07;4.47;;;;;;;3.97;100.00;100730.41;1753693;82;26311;-73
2021/05/06 03:49:20;;;;;;;4.97;3.67;;;;;;;3.99;100.00;100716.41;1729809;82;26233;-74
2021/05/06 04:17:34;;;;;;;4.63;3.70;;;;;;;3.94;100.00;100695.16;1703430;84;26357;-74
2021/05/06 04:25:39;;;;;;;5.97;4.00;;;;;;;3.61;100.00;100688.19;1809893;79;26236;-74
2021/05/06 04:31:17;;;;;;;3.97;3.53;;;;;;;3.48;100.00;100689.30;1755563;79;26207;-74
2021/05/06 04:36:36;;;;;;;4.77;3.97;;;;;;;3.58;100.00;100692.27;1809785;79;26248;-73
2021/05/06 04:39:00;;;;;;;6.67;4.10;;;;;;;3.65;100.00;100687.99;1808404;79;26291;-74
2021/05/06 04:41:40;;;;;;;6.17;4.10;;;;;;;3.73;100.00;100694.47;1809718;79;26229;-74
2021/05/06 04:55:37;;;;;;;3.83;3.37;;;;;;;3.37;100.00;100679.72;1809869;79;26236;-74
2021/05/06 04:58:27;;;;;;;3.43;3.13;;;;;;;3.28;100.00;100688.03;1809503;79;26213;-76
2021/05/06 05:03:40;;;;;;;5.07;3.90;;;;;;;3.42;100.00;100672.97;1809727;79;26330;-73
2021/05/06 05:06:12;;;;;;;5.83;4.63;;;;;;;3.49;100.00;100675.87;1785392;80;26214;-73
2021/05/06 05:08:45;;;;;;;5.87;3.67;;;;;;;3.51;100.00;100661.88;1750992;81;26715;-73
2021/05/06 05:11:32;;;;;;;6.27;3.80;;;;;;;3.49;100.00;100667.63;1796981;79;26251;-73
2021/05/06 05:14:11;;;;;;;4.73;3.70;;;;;;;3.57;100.00;100672.73;1809278;79;26306;-73
2021/05/06 05:24:59;;;;;;;6.73;4.47;;;;;;;3.69;100.00;100665.82;1809844;79;26252;-73
2021/05/06 05:27:28;;;;;;;5.83;4.40;;;;;;;3.91;100.00;100666.81;1809909;79;26224;-73
2021/05/06 05:29:58;;;;;;;8.90;5.60;;;;;;;4.05;100.00;100656.35;1809842;79;26294;-73
2021/05/06 05:32:28;;;;;;;7.73;5.00;;;;;;;4.15;100.00;100658.46;1809787;79;26235;-73
2021/05/06 05:35:00;;;;;;;7.67;4.67;;;;;;;4.14;100.00;100653.50;1809769;79;26200;-74
2021/05/06 05:37:33;;;;;;;6.77;4.57;;;;;;;4.23;100.00;100652.02;1810121;79;26701;-73
2021/05/06 05:40:14;;;;;;;6.50;4.80;;;;;;;4.27;100.00;100653.72;1809698;79;26204;-73
2021/05/06 05:42:52;;;;;;;7.43;4.80;;;;;;;4.36;100.00;100651.69;1809690;79;26291;-72
2021/05/06 05:45:49;;;;;;;8.30;5.03;;;;;;;4.47;100.00;100652.14;1809321;79;26370;-73
2021/05/06 05:56:46;;;;;;;7.33;4.77;;;;;;;4.90;100.00;100632.72;1809830;79;26334;-73
2021/05/06 05:59:16;;;;;;;8.50;6.27;;;;;;;4.86;100.00;100642.02;1809761;79;26207;-73
2021/05/06 06:01:47;;;;;;;9.10;5.50;;;;;;;4.80;100.00;100647.15;1809820;79;26679;-74
2021/05/06 06:04:17;;;;;;;5.97;5.30;;;;;;;4.93;100.00;100639.08;1809806;79;26190;-74
2021/05/06 06:06:46;;;;;;;6.00;4.87;;;;;;;5.05;100.00;100643.92;1809756;79;26288;-74
2021/05/06 06:09:16;;;;;;;8.20;5.40;;;;;;;5.08;100.00;100643.98;1809794;79;26282;-73
2021/05/06 06:11:46;;;;;;;7.50;5.37;;;;;;;5.09;100.00;100644.28;1809757;78;26407;-72
2021/05/06 06:14:22;;;;;;;7.50;5.27;;;;;;;5.04;100.00;100643.13;1809795;79;26693;-73
2021/05/06 06:16:49;;;;;;;8.13;5.33;;;;;;;5.08;100.00;100646.73;1809533;79;26275;-73
2021/05/06 06:19:24;;;;;;;6.43;5.03;;;;;;;5.25;100.00;100647.52;1809870;79;26396;-73
2021/05/06 06:21:52;;;;;;;7.07;5.43;;;;;;;5.14;100.00;100645.70;1809320;79;26324;-73
2021/05/06 06:24:21;;;;;;;8.13;5.80;;;;;;;5.20;100.00;100646.06;1809888;79;26332;-73
2021/05/06 06:26:51;;;;;;;8.63;5.97;;;;;;;5.29;100.00;100645.92;1809733;79;26265;-73
2021/05/06 06:29:27;;;;;;;8.17;5.53;;;;;;;5.27;100.00;100652.21;1809807;79;26306;-73
2021/05/06 06:31:52;;;;;;;7.73;6.27;;;;;;;5.41;100.00;100649.38;1809285;79;26731;-73
2021/05/06 06:34:22;;;;;;;8.87;6.07;;;;;;;5.38;100.00;100645.77;1809827;79;26234;-73
2021/05/06 06:36:52;;;;;;;9.10;6.43;;;;;;;5.47;100.00;100652.49;1809685;79;26329;-73
2021/05/06 06:39:23;;;;;;;6.80;5.63;;;;;;;5.38;100.00;100649.36;1809749;79;26724;-73
2021/05/06 06:41:53;;;;;;;9.93;5.60;;;;;;;5.53;100.00;100646.48;1809615;79;26246;-74
2021/05/06 06:44:27;;;;;;;8.13;5.70;;;;;;;5.51;100.00;100648.14;1809712;79;26649;-74
2021/05/06 06:47:03;;;;;;;8.97;5.20;;;;;;;5.69;100.00;100649.16;1809871;79;26317;-73
2021/05/06 06:49:35;;;;;;;6.83;5.17;;;;;;;5.80;100.00;100654.25;1809784;79;26226;-74
2021/05/06 06:52:07;;;;;;;6.87;5.63;;;;;;;5.62;100.00;100650.45;1809714;79;26215;-74
2021/05/06 06:54:40;;;;;;;8.50;6.00;;;;;;;5.68;100.00;100646.68;1809922;79;26255;-74
2021/05/06 06:57:10;;;;;;;7.17;4.83;;;;;;;5.81;100.00;100651.80;1809812;79;26203;-74
2021/05/06 06:59:40;;;;;;;6.83;4.93;;;;;;;5.89;100.00;100646.68;1809880;79;26682;-76
2021/05/06 07:02:12;;;;;;;7.97;5.90;;;;;;;6.05;100.00;100648.20;1809839;79;26246;-73
2021/05/06 07:04:41;;;;;;;7.00;5.10;;;;;;;5.92;100.00;100646.70;1809870;79;26182;-71
2021/05/06 07:07:12;;;;;;;7.33;5.03;;;;;;;6.04;100.00;100641.02;1809738;79;26280;-71
2021/05/06 07:09:42;;;;;;;7.23;5.40;;;;;;;6.17;100.00;100643.36;1809675;79;26234;-73
2021/05/06 07:12:12;;;;;;;9.57;5.70;;;;;;;6.24;100.00;100642.61;1797179;79;26258;-72
2021/05/06 07:14:42;;;;;;;7.63;4.80;;;;;;;6.35;100.00;100641.60;1813084;79;26281;-72
2021/05/06 07:17:12;;;;;;;8.80;4.90;;;;;;;6.24;100.00;100639.31;1809660;79;26697;-72
2021/05/06 07:19:41;;;;;;;7.23;4.70;;;;;;;6.13;100.00;100641.67;1809746;79;26289;-72
2021/05/06 07:22:11;;;;;;;6.53;4.80;;;;;;;6.15;100.00;100638.13;1809731;79;26633;-72
2021/05/06 07:24:41;;;;;;;5.57;4.60;;;;;;;6.31;100.00;100630.27;1809802;79;26207;-72
2021/05/06 07:27:11;;;;;;;11.30;4.53;;;;;;;6.52;100.00;100631.80;1809785;79;26642;-73
2021/05/06 07:29:40;;;;;;;6.03;4.30;;;;;;;6.57;100.00;100625.78;1809726;79;26222;-73
2021/05/06 07:32:10;;;;;;;5.73;4.70;;;;;;;6.63;100.00;100628.85;1809719;79;26206;-71
2021/05/06 07:34:40;;;;;;;7.07;4.63;;;;;;;6.54;100.00;100624.11;1809857;79;26630;-72
2021/05/06 07:37:10;;;;;;;7.30;4.43;;;;;;;6.88;100.00;100623.25;1809849;79;26269;-73
2021/05/06 07:39:40;;;;;;;6.40;4.37;;;;;;;6.88;100.00;100619.10;1809764;79;26285;-72
2021/05/06 07:42:10;;;;;;;7.67;4.40;;;;;;;6.76;100.00;100615.97;1809746;79;26678;-73
2021/05/06 07:44:40;;;;;;;8.17;3.93;;;;;;;6.96;100.00;100611.70;1809748;79;26658;-74
2021/05/06 07:47:10;;;;;;;6.80;4.23;;;;;;;7.11;100.00;100612.59;1809916;79;26247;-74
2021/05/06 07:49:41;;;;;;;7.57;4.60;;;;;;;7.27;100.00;100612.95;1809715;79;26654;-73
2021/05/06 07:52:14;;;;;;;8.57;4.60;;;;;;;7.28;100.00;100608.26;1809733;79;26740;-73
2021/05/06 07:54:43;;;;;;;8.77;5.07;;;;;;;7.24;100.00;100602.45;1809954;79;26207;-73
2021/05/06 07:57:13;;;;;;;5.90;4.40;;;;;;;7.45;100.00;100598.38;1809872;79;26291;-74
2021/05/06 07:59:43;;;;;;;9.00;4.50;;;;;;;7.57;100.00;100599.00;1810004;79;26214;-74
2021/05/06 08:02:13;;;;;;;5.60;4.20;;;;;;;8.09;100.00;100590.52;1809729;79;26255;-74
2021/05/06 08:04:44;;;;;;;8.37;4.33;;;;;;;8.11;100.00;100589.15;1809802;79;26262;-73
2021/05/06 08:07:13;;;;;;;5.70;4.57;;;;;;;8.10;100.00;100587.48;1809844;79;26284;-73
2021/05/06 08:09:43;;;;;;;8.23;4.60;;;;;;;8.22;100.00;100586.66;1809804;79;26299;-73
2021/05/06 08:12:14;;;;;;;7.60;4.60;;;;;;;8.30;100.00;100583.11;1809719;79;26721;-73
2021/05/06 08:14:44;;;;;;;7.77;4.07;;;;;;;8.37;100.00;100580.34;1809810;79;26288;-73
2021/05/06 08:17:13;;;;;;;6.77;4.63;;;;;;;8.80;100.00;100579.45;1809668;79;26211;-73
2021/05/06 08:19:43;;;;;;;6.53;4.67;;;;;;;8.84;100.00;100584.70;1809755;79;26211;-73
2021/05/06 08:22:13;;;;;;;12.73;4.90;;;;;;;9.09;100.00;100581.31;1809880;79;26288;-73
2021/05/06 08:24:44;;;;;;;6.90;4.43;;;;;;;9.54;100.00;100574.73;1809812;79;26208;-73
2021/05/06 08:27:14;;;;;;;4.03;3.50;;;;;;;9.71;100.00;100581.88;1809896;79;26296;-73
2021/05/06 08:29:45;;;;;;;8.13;3.93;;;;;;;9.54;100.00;100570.57;1809863;79;26292;-73
2021/05/06 08:32:15;;;;;;;5.07;3.60;;;;;;;9.73;100.00;100575.47;1809869;79;26207;-73
2021/05/06 08:34:45;;;;;;;4.63;3.13;;;;;;;9.97;100.00;100568.92;1809802;79;26674;-73
2021/05/06 08:37:15;;;;;;;8.03;3.63;;;;;;;9.67;100.00;100566.34;1809837;79;26809;-73
2021/05/06 08:39:45;;;;;;;4.03;3.13;;;;;;;9.76;100.00;100552.70;1809822;79;26731;-73
2021/05/06 08:42:16;;;;;;;5.73;3.10;;;;;;;9.91;100.00;100560.38;1809727;79;26211;-73
2021/05/06 08:44:46;;;;;;;4.37;2.67;;;;;;;10.03;100.00;100554.47;1809886;79;26233;-73
2021/05/06 08:47:18;;;;;;;5.33;2.87;;;;;;;9.93;100.00;100550.37;1809739;79;26668;-73
2021/05/06 08:49:48;;;;;;;4.47;2.67;;;;;;;10.09;100.00;100546.39;1809803;79;26281;-74
2021/05/06 08:52:21;;;;;;;5.30;2.47;;;;;;;10.03;100.00;100548.92;1809849;79;26261;-73
2021/05/06 08:54:52;;;;;;;4.20;2.23;;;;;;;9.96;100.00;100543.71;1809877;79;26647;-73
2021/05/06 08:57:23;;;;;;;3.33;2.60;;;;;;;9.88;100.00;100544.88;1809868;79;26216;-73
2021/05/06 08:59:54;;;;;;;5.30;2.20;;;;;;;9.97;100.00;100543.95;1809819;79;26203;-73
2021/05/06 09:02:24;;;;;;;4.10;1.87;;;;;;;9.82;100.00;100552.40;1809824;79;26394;-73
2021/05/06 09:04:53;;;;;;;3.87;2.00;;;;;;;9.72;100.00;100546.08;1809799;79;26206;-74
2021/05/06 09:07:23;;;;;;;3.77;2.10;;;;;;;9.71;100.00;100545.27;1809855;79;26214;-73
2021/05/06 09:09:53;;;;;;;5.10;2.40;;;;;;;9.60;100.00;100544.48;1809782;79;26261;-73
2021/05/06 09:12:37;;;;;;;5.23;2.53;;;;;;;9.86;100.00;100544.33;1809730;79;26284;-73
2021/05/06 09:15:15;;;;;;;4.57;1.93;;;;;;;9.65;100.00;100540.86;1809862;79;26654;-73
2021/05/06 09:17:45;;;;;;;3.67;1.37;;;;;;;9.97;100.00;100543.13;1810023;79;26188;-73
2021/05/06 09:20:19;;;;;;;5.07;1.67;;;;;;;10.20;100.00;100536.88;1809868;79;26749;-73
2021/05/06 09:22:51;;;;;;;5.60;2.20;;;;;;;9.98;100.00;100530.91;1809927;79;26262;-73
2021/05/06 09:25:33;;;;;;;3.83;1.70;;;;;;;9.80;100.00;100528.27;1809837;79;26304;-73
2021/05/06 09:28:10;;;;;;;2.53;1.70;;;;;;;10.08;100.00;100534.17;1809942;79;26282;-73
2021/05/06 09:30:50;;;;;;;5.80;1.37;;;;;;;10.21;100.00;100540.48;1809817;79;26300;-73
2021/05/06 09:33:27;;;;;;;3.03;1.50;;;;;;;9.92;100.00;100532.92;1809901;79;26246;-73
2021/05/06 09:35:58;;;;;;;2.10;1.10;;;;;;;9.98;100.00;100533.69;1809816;79;26292;-73
2021/05/06 09:38:30;;;;;;;3.80;1.27;;;;;;;10.38;100.00;100527.01;1809906;79;26223;-73
2021/05/06 09:41:03;;;;;;;2.77;1.20;;;;;;;10.48;100.00;100528.31;1809831;79;26857;-74
2021/05/06 09:43:39;;;;;;;3.43;1.20;;;;;;;10.60;100.00;100525.97;1809840;79;26735;-74
2021/05/06 09:46:24;;;;;;;5.00;1.37;;;;;;;10.57;100.00;100516.81;1809848;79;26211;-73
2021/05/06 09:49:03;;;;;;;4.20;1.60;;;;;;;10.85;100.00;100515.14;1809937;79;26356;-73
2021/05/06 09:51:36;;;;;;;3.30;1.30;;;;;;;10.73;100.00;100521.66;1809905;79;26215;-74
2021/05/06 09:54:08;;;;;;;1.97;1.17;;;;;;;10.65;100.00;100531.47;1809908;79;26277;-74
2021/05/06 09:56:39;;;;;;;3.37;1.40;;;;;;;10.58;100.00;100535.14;1809894;79;26278;-74
2021/05/06 09:59:09;;;;;;;2.83;1.80;;;;;;;10.51;100.00;100542.99;1809867;79;26218;-74
2021/05/06 10:01:42;;;;;;;2.60;1.63;;;;;;;10.32;100.00;100547.04;1809897;79;26666;-74
2021/05/06 10:04:20;;;;;;;3.47;1.70;;;;;;;10.28;100.00;100547.91;1809972;79;26778;-73
2021/05/06 10:07:11;;;;;;;4.13;1.57;;;;;;;10.25;100.00;100554.05;1809999;79;26243;-74
2021/05/06 10:09:52;;;;;;;2.20;1.37;;;;;;;10.24;100.00;100549.61;1809855;79;26236;-73
2021/05/06 10:12:22;;;;;;;4.13;1.80;;;;;;;10.21;100.00;100554.36;1809829;79;26309;-73
2021/05/06 10:14:52;;;;;;;3.73;1.57;;;;;;;10.22;100.00;100553.25;1809890;78;26404;-73
2021/05/06 10:17:24;;;;;;;2.47;1.20;;;;;;;10.17;100.00;100557.45;1809858;79;26265;-74
2021/05/06 10:19:55;;;;;;;2.00;1.23;;;;;;;10.19;100.00;100552.42;1809861;79;26218;-73
2021/05/06 10:22:27;;;;;;;1.57;1.20;;;;;;;10.31;100.00;100559.25;1809950;79;26226;-73
2021/05/06 10:24:58;;;;;;;2.20;1.10;;;;;;;10.45;100.00;100558.03;1809932;79;26686;-73
2021/05/06 10:27:28;;;;;;;3.37;1.60;;;;;;;10.32;100.00;100555.37;1809840;79;26634;-74
2021/05/06 10:29:59;;;;;;;4.10;1.40;;;;;;;10.30;100.00;100556.80;1809924;79;26215;-74
2021/05/06 10:32:31;;;;;;;4.67;1.70;;;;;;;10.09;100.00;100555.27;1809781;79;26231;-74
2021/05/06 10:35:03;;;;;;;3.97;1.60;;;;;;;10.16;100.00;100553.84;1809724;79;26247;-74
2021/05/06 10:37:35;;;;;;;2.53;1.70;;;;;;;10.12;100.00;100556.90;1809834;79;26208;-73
2021/05/06 10:40:09;;;;;;;3.30;1.50;;;;;;;10.11;100.00;100554.41;1809746;79;26284;-74
2021/05/06 10:42:39;;;;;;;3.70;1.70;;;;;;;10.21;100.00;100547.42;1808125;79;26199;-74
2021/05/06 10:45:34;;;;;;;3.30;1.57;;;;;;;10.31;100.00;100555.09;1809899;79;26220;-74
2021/05/06 10:48:05;;;;;;;5.13;1.60;;;;;;;10.29;100.00;100551.80;1809821;79;26210;-74
2021/05/06 10:50:42;;;;;;;2.63;1.40;;;;;;;10.53;100.00;100550.45;1809820;79;26198;-73
2021/05/06 10:53:13;;;;;;;4.00;1.57;;;;;;;10.85;100.00;100537.36;1809798;79;26199;-73
2021/05/06 10:55:49;;;;;;;4.03;1.80;;;;;;;10.91;100.00;100536.99;1809165;79;26682;-73
2021/05/06 10:58:40;;;;;;;1.97;1.27;;;;;;;11.11;100.00;100535.95;1809920;79;26736;-73
2021/05/06 11:01:21;;;;;;;2.90;1.27;;;;;;;11.17;100.00;100533.91;1809868;79;26273;-73
2021/05/06 11:04:06;;;;;;;2.47;1.03;;;;;;;11.18;100.00;100528.63;1809871;79;26293;-73
2021/05/06 11:06:46;;;;;;;3.37;1.33;;;;;;;11.15;100.00;100526.45;1809845;79;26224;-73
2021/05/06 11:09:56;;;;;;;2.53;1.10;;;;;;;11.54;100.00;100529.00;1809992;79;26671;-74
2021/05/06 11:12:34;;;;;;;1.10;1.00;;;;;;;11.62;100.00;100526.38;1809675;79;26314;-73
2021/05/06 11:15:36;;;;;;;2.50;1.17;;;;;;;11.69;100.00;100528.77;1797371;79;26266;-73
2021/05/06 11:18:08;;;;;;;1.67;1.17;;;;;;;11.54;100.00;100529.00;1810081;79;26694;-73
2021/05/06 11:20:56;;;;;;;2.60;1.80;;;;;;;11.32;100.00;100524.84;1809746;79;26647;-73
2021/05/06 11:23:35;;;;;;;2.27;1.87;;;;;;;11.35;100.00;100527.57;1809901;79;26660;-73
2021/05/06 11:26:16;;;;;;;1.63;1.20;;;;;;;11.45;100.00;100523.84;1809774;79;26215;-73
2021/05/06 11:28:55;;;;;;;2.90;1.60;;;;;;;11.32;100.00;100526.78;1809929;79;26285;-73
2021/05/06 11:31:47;;;;;;;1.43;1.13;;;;;;;11.28;100.00;100521.56;1809900;79;26674;-73
2021/05/06 11:34:42;;;;;;;2.00;1.20;;;;;;;11.53;100.00;100523.99;1809735;79;26211;-73
2021/05/06 11:37:18;;;;;;;2.57;1.33;;;;;;;11.36;100.00;100520.33;1809752;79;26222;-74
2021/05/06 11:39:53;;;;;;;1.93;1.60;;;;;;;11.37;100.00;100522.55;1809647;79;26223;-73
2021/05/06 11:42:24;;;;;;;2.87;1.27;;;;;;;11.43;100.00;100518.00;1809798;79;26206;-73
2021/05/06 11:45:18;;;;;;;2.53;1.50;;;;;;;11.42;100.00;100512.76;1809629;79;26657;-73
2021/05/06 11:47:48;;;;;;;1.37;1.10;;;;;;;11.48;100.00;100519.88;1809949;79;26698;-74
2021/05/06 11:50:23;;;;;;;1.30;1.17;;;;;;;11.67;100.00;100514.34;1809766;79;26222;-74
2021/05/06 11:52:54;;;;;;;1.57;1.30;;;;;;;11.89;100.00;100509.03;1809853;79;26222;-74
2021/05/06 11:55:41;;;;;;;1.90;1.30;;;;;;;11.68;100.00;100504.87;1809933;79;26290;-74
2021/05/06 11:58:11;;;;;;;2.03;1.80;;;;;;;11.45;100.00;100513.54;1809781;79;26214;-73
2021/05/06 12:00:41;;;;;;;2.63;1.70;;;;;;;11.49;100.00;100515.98;1809723;79;26253;-74
2021/05/06 12:03:12;;;;;;;2.03;1.70;;;;;;;11.65;100.00;100515.19;1809790;79;26294;-74
2021/05/06 12:05:55;;;;;;;2.50;1.83;;;;;;;11.60;100.00;100520.83;1809684;79;26258;-74
2021/05/06 12:08:26;;;;;;;2.63;1.87;;;;;;;11.86;100.00;100517.41;1809667;79;26266;-74
2021/05/06 12:10:58;;;;;;;2.77;1.83;;;;;;;11.80;100.00;100516.41;1809611;79;26294;-74
2021/05/06 12:13:31;;;;;;;2.40;1.80;;;;;;;11.85;100.00;100511.56;1809600;79;26288;-73
2021/05/06 12:16:21;;;;;;;2.27;1.60;;;;;;;12.04;100.00;100523.25;1797583;79;26266;-74
2021/05/06 12:19:06;;;;;;;2.57;2.00;;;;;;;11.88;100.00;100524.07;1809647;79;26215;-75
2021/05/06 12:21:43;;;;;;;1.17;1.07;;;;;;;12.37;100.00;100517.95;1809671;79;26626;-75
2021/05/06 12:24:14;;;;;;;1.23;1.10;;;;;;;12.32;100.00;100516.67;1809603;79;26257;-75
2021/05/06 12:26:44;;;;;;;1.80;1.40;;;;;;;12.15;100.00;100528.94;1809708;79;26203;-75
2021/05/06 12:29:22;;;;;;;1.90;1.27;;;;;;;12.01;100.00;100535.00;1809746;79;26331;-75
2021/05/06 12:31:53;;;;;;;1.70;1.23;;;;;;;11.73;100.00;100534.02;1809611;79;26764;-75
2021/05/06 12:34:25;;;;;;;1.60;1.50;;;;;;;11.73;100.00;100532.07;1809732;79;26211;-75
2021/05/06 12:36:58;;;;;;;2.50;1.80;;;;;;;11.43;100.00;100534.69;1809908;79;26210;-75
2021/05/06 12:39:29;;;;;;;2.30;1.70;;;;;;;11.40;100.00;100543.63;1809836;79;26199;-74
2021/05/06 12:42:04;;;;;;;2.13;1.93;;;;;;;11.30;100.00;100539.59;1809812;79;26210;-75
2021/05/06 12:44:42;;;;;;;2.20;1.90;;;;;;;11.19;100.00;100538.07;1810046;79;26245;-75
2021/05/06 12:47:17;;;;;;;3.30;1.93;;;;;;;11.19;100.00;100542.23;1810050;79;26246;-75
2021/05/06 12:49:48;;;;;;;2.50;2.30;;;;;;;11.26;100.00;100541.86;1809937;79;26673;-75
2021/05/06 12:52:36;;;;;;;2.70;1.97;;;;;;;11.25;100.00;100541.63;1809792;79;26234;-74
2021/05/06 12:55:18;;;;;;;1.80;1.70;;;;;;;11.30;100.00;100537.36;1810004;79;26292;-74
2021/05/06 12:58:07;;;;;;;4.73;1.80;;;;;;;11.38;100.00;100531.17;1809892;79;26211;-74
2021/05/06 13:00:38;;;;;;;2.30;1.80;;;;;;;11.51;100.00;100529.02;1810011;79;26720;-74
2021/05/06 13:03:10;;;;;;;2.10;1.90;;;;;;;11.63;100.00;100534.16;1810024;79;26312;-74
2021/05/06 13:05:43;;;;;;;2.10;1.87;;;;;;;11.67;100.00;100527.69;1809924;79;26218;-74
2021/05/06 13:08:14;;;;;;;2.53;1.70;;;;;;;11.74;100.00;100525.95;1809899;79;26214;-74
2021/05/06 13:10:45;;;;;;;1.60;1.50;;;;;;;11.83;100.00;100528.31;1809879;79;26216;-74
2021/05/06 13:13:36;;;;;;;2.43;2.00;;;;;;;11.82;100.00;100530.27;1809908;79;26241;-74
2021/05/06 13:16:07;;;;;;;2.73;1.77;;;;;;;11.68;100.00;100531.31;1797279;79;26285;-74
2021/05/06 13:18:37;;;;;;;2.03;1.83;;;;;;;11.68;100.00;100530.72;1809905;79;26231;-74
2021/05/06 13:21:10;;;;;;;2.87;2.00;;;;;;;11.83;100.00;100526.36;1809911;79;26214;-74
2021/05/06 13:23:41;;;;;;;1.77;1.67;;;;;;;11.77;100.00;100525.34;1808338;79;26222;-74
2021/05/06 13:26:11;;;;;;;1.90;1.63;;;;;;;11.62;100.00;100526.93;1810123;79;26710;-74
2021/05/06 13:28:46;;;;;;;2.20;1.60;;;;;;;11.71;100.00;100527.36;1809803;79;26334;-74
2021/05/06 13:31:20;;;;;;;2.13;1.40;;;;;;;11.73;100.00;100527.89;1809733;79;26219;-74
2021/05/06 13:33:52;;;;;;;2.43;1.30;;;;;;;11.99;100.00;100526.11;1810003;79;26642;-74
2021/05/06 13:36:23;;;;;;;1.83;1.50;;;;;;;12.06;100.00;100518.23;1809736;79;26210;-74
2021/05/06 13:38:56;;;;;;;2.60;1.70;;;;;;;12.15;100.00;100525.56;1809728;79;26246;-74
2021/05/06 13:41:28;;;;;;;2.23;1.97;;;;;;;12.11;100.00;100530.64;1809942;79;26239;-74
2021/05/06 13:44:00;;;;;;;2.10;1.93;;;;;;;12.11;100.00;100526.47;1809932;79;26678;-74
2021/05/06 13:46:33;;;;;;;3.10;2.30;;;;;;;11.84;100.00;100524.41;1809872;79;26219;-74
2021/05/06 13:49:03;;;;;;;2.60;2.10;;;;;;;11.87;100.00;100525.19;1809854;79;26247;-74
2021/05/06 13:51:33;;;;;;;3.50;2.43;;;;;;;11.78;100.00;100527.83;1809957;79;26312;-74
2021/05/06 13:54:03;;;;;;;2.43;2.07;;;;;;;11.75;100.00;100529.83;1809933;79;26344;-74
2021/05/06 13:56:34;;;;;;;3.13;2.53;;;;;;;11.69;100.00;100531.55;1809904;79;26238;-74
2021/05/06 13:59:04;;;;;;;2.43;2.13;;;;;;;11.69;100.00;100529.59;1810028;79;26402;-74
2021/05/06 14:01:35;;;;;;;5.67;2.60;;;;;;;11.67;100.00;100535.20;1809948;79;26642;-74
2021/05/06 14:04:05;;;;;;;2.77;2.30;;;;;;;11.64;100.00;100534.40;1809818;79;26305;-74
2021/05/06 14:06:36;;;;;;;2.90;2.07;;;;;;;11.61;100.00;100540.57;1810006;79;26716;-75
2021/05/06 14:09:14;;;;;;;2.30;2.10;;;;;;;11.53;100.00;100536.51;1809871;79;26264;-74
2021/05/06 14:11:38;;;;;;;2.63;2.37;;;;;;;11.61;100.00;100540.01;1809240;79;26203;-74
2021/05/06 14:14:08;;;;;;;3.03;2.57;;;;;;;11.63;100.00;100533.59;1809836;79;26218;-74
2021/05/06 14:16:39;;;;;;;2.30;2.10;;;;;;;11.80;100.00;100542.28;1797241;79;26407;-74